LRBC/BCM METAR and TAF weather

Enter ICAO airport designator
Station Type Date Time Source
LRBC METAR 2020/04/09 10:30 UTC NOAA

LRBC 091030Z 02006KT 280V090 CAVOK 21/00 Q1020


Station Type Date Time Source
LRBC Decoded METAR 2020/04/09 10:30 UTC NOAA

Bacau, Romania (LRBC) 46-35N 026-58E 190M
Apr 09, 2020 - 06:30 AM EDT / 2020.04.09 1030 UTC
Wind: from the NNE (020 degrees) at 7 MPH (6 KT) (direction variable):0
Visibility: greater than 7 mile(s):0
Temperature: 69 F (21 C)
Dew Point: 32 F (0 C)
Relative Humidity: 24%
Pressure (altimeter): 30.12 in. Hg (1020 hPa)
ob: LRBC 091030Z 02006KT 280V090 CAVOK 21/00 Q1020
cycle: 10

Station Type Date Time Source
LRBC TAF 2010/08/31 20:30 UTC NOAA

TAF LRBC 312030Z 3121/0203 CNL

Example: see airport list